• Join FlightAware (Why Join?)
  • Login
  • US Flag 
08:03PM EDT


 

Airport Tracker/Info


-or-


 

Live Flight TrackerFlight Track Log ✈ UAL4191 ✈ 20-Jun-2013 ✈ KEWR - KBNA

Flight Track Log - Related Links

Times and Time Zones

All times are in EDT time to prevent confusion due to time zone crossing. See the UAL4191 flight status page for this flight to view local times or setup timezone preferences in your user account.

Time Position Orientation Groundspeed Altitude Reporting Facility
EDT Latitude Longitude Course Direction KTS MPH feet Rate Location/Type
08:13PM 40.6500 -74.1833 258° West 176 203 2,100  Level New York TRACON
08:14PM 40.6167 -74.2500 237° Southwest 219 252 3,600 1,680 Climbing New York TRACON
08:15PM 40.6000 -74.3333 255° West 254 292 5,500 1,980 Climbing New York TRACON
08:16PM 40.6000 -74.4167 270° West 262 302 7,600 1,860 Climbing New York TRACON
08:17PM 40.6244 -74.5989 280° West 263 303 10,900 1,380 Climbing New York Center
08:18PM 40.6799 -74.9872 258° West  Level FlightAware Approximate
08:18PM 40.6381 -74.6956 281° West 288 331 11,600  Level New York Center
08:19PM 40.6564 -74.8306 280° West 325 374 13,000 1,320 Climbing New York Center
08:20PM 40.6672 -74.9378 278° West 337 388 14,200 1,200 Climbing New York Center
08:21PM 40.6817 -75.0619 279° West 343 395 15,400 1,320 Climbing New York Center
08:22PM 40.6869 -75.1992 273° West 343 395 16,900 1,260 Climbing New York Center
08:23PM 40.6469 -75.3169 246° West 338 389 18,000 900 Climbing New York Center
08:24PM 40.6175 -75.4353 252° West 338 389 18,800 840 Climbing New York Center
08:25PM 40.5983 -75.5461 257° West 338 389 19,800 1,080 Climbing New York Center
08:26PM 40.5722 -75.6725 255° West 350 403 21,000 1,200 Climbing New York Center
08:27PM 40.5300 -75.7869 244° Southwest 356 410 22,200 1,140 Climbing New York Center
08:28PM 40.4553 -75.8769 223° Southwest 353 406 23,300 1,140 Climbing New York Center
08:29PM 40.3783 -75.9694 222° Southwest 370 426 24,500 1,020 Climbing New York Center
08:30PM 40.3056 -76.0619 224° Southwest 370 426 25,500 900 Climbing New York Center
08:31PM 40.2325 -76.1544 224° Southwest 370 426 26,400 900 Climbing New York Center
08:32PM 40.1575 -76.2464 223° Southwest 370 426 27,300 840 Climbing New York Center
08:33PM 40.0900 -76.3469 229° Southwest 370 426 28,100 720 Climbing New York Center
08:34PM 40.0386 -76.4647 240° Southwest 370 426 28,800 600 Climbing New York Center
08:35PM 39.9744 -76.5842 235° Southwest 370 426 29,400 660 Climbing New York Center
08:36PM 39.9294 -76.6942 242° Southwest 375 432 30,200 720 Climbing New York Center
08:38PM 39.8550 -76.8536 239° Southwest 379 436 31,200 660 Climbing Washington Center
08:39PM 39.7994 -76.9769 240° Southwest 384 442 31,900 720 Climbing Washington Center
08:40PM 39.7417 -77.0972 238° Southwest 390 449 32,700 780 Climbing Washington Center
08:41PM 39.6839 -77.2200 239° Southwest 390 449 33,500 720 Climbing Washington Center
08:42PM 39.6258 -77.3428 238° Southwest 401 461 34,200 660 Climbing Washington Center
08:43PM 39.5700 -77.4625 239° Southwest 401 461 34,900 600 Climbing Washington Center
08:44PM 39.5117 -77.5847 238° Southwest 401 461 35,500 540 Climbing Washington Center
08:45PM 39.4533 -77.7067 238° Southwest 401 461 36,000 240 Climbing Washington Center
08:46PM 39.3950 -77.8314 239° Southwest 401 461 36,000  Level Washington Center
08:47PM 39.3425 -77.9611 242° Southwest 406 467 36,000  Level Washington Center
08:48PM 39.2831 -78.1094 243° Southwest 417 480 36,000  Level Washington Center
08:49PM 39.2414 -78.2125 242° Southwest 417 480 36,000  Level Washington Center
08:50PM 39.1794 -78.3656 242° Southwest 412 474 36,000  Level Washington Center
08:51PM 39.1286 -78.4947 243° Southwest 412 474 36,000  Level Washington Center
08:52PM 39.0775 -78.6183 242° Southwest 406 467 36,000  Level Washington Center
08:53PM 39.0283 -78.7472 244° Southwest 406 467 36,000  Level Washington Center
08:54PM 38.9772 -78.8706 242° Southwest 406 467 36,000  Level Washington Center
08:55PM 38.9339 -79.0022 247° West 406 467 36,000  Level Washington Center
08:56PM 38.9028 -79.1422 254° West 406 467 36,000  Level Washington Center
08:57PM 38.8714 -79.2819 254° West 406 467 36,000  Level Washington Center
08:58PM 38.8397 -79.4242 254° West 411 473 36,000  Level Washington Center
08:59PM 38.8081 -79.5639 254° West 411 473 36,000  Level Washington Center
09:00PM 38.7761 -79.7139 255° West 418 481 36,000  Level Washington Center
09:01PM 38.7444 -79.8425 253° West 423 487 36,000  Level Washington Center
09:02PM 38.7111 -79.9744 252° West 419 482 36,000  Level Indianapolis Center
09:03PM 38.6772 -80.1172 253° West 420 483 36,000  Level Indianapolis Center
09:04PM 38.6442 -80.2606 254° West 419 482 36,000  Level Indianapolis Center
09:05PM 38.6100 -80.4014 253° West 416 479 36,000  Level Indianapolis Center
09:06PM 38.5781 -80.5433 254° West 415 478 36,000  Level Indianapolis Center
09:07PM 38.5439 -80.6858 253° West 417 480 36,000  Level Indianapolis Center
09:08PM 38.5103 -80.8275 253° West 417 480 36,000  Level Indianapolis Center
09:09PM 38.4753 -80.9686 252° West 416 479 36,000  Level Indianapolis Center
09:10PM 38.4417 -81.1108 253° West 415 478 36,000  Level Indianapolis Center
09:11PM 38.4067 -81.2531 253° West 417 480 36,000  Level Indianapolis Center
09:12PM 38.3717 -81.3944 253° West 415 478 36,000  Level Indianapolis Center
09:13PM 38.3297 -81.5644 253° West 415 478 36,000  Level Indianapolis Center
09:14PM 38.2950 -81.7061 253° West 416 479 36,000  Level Indianapolis Center
09:15PM 38.2603 -81.8456 252° West 412 474 36,000  Level Indianapolis Center
09:16PM 38.2242 -81.9858 252° West 415 478 36,000  Level Indianapolis Center
09:17PM 38.1897 -82.1258 253° West 415 478 36,000  Level Indianapolis Center
09:18PM 38.1536 -82.2664 252° West 417 480 36,000  Level Indianapolis Center
09:19PM 38.1178 -82.4067 252° West 417 480 36,000  Level Indianapolis Center
09:20PM 38.0808 -82.5492 252° West 417 480 36,000  Level Indianapolis Center
09:21PM 38.0381 -82.7122 252° West 419 482 36,000  Level Indianapolis Center
09:22PM 38.0028 -82.8536 252° West 420 483 36,000  Level Indianapolis Center
09:23PM 37.9653 -82.9947 251° West 423 487 36,000  Level Indianapolis Center
09:24PM 37.9286 -83.1347 252° West 421 484 36,000 -300 Level Indianapolis Center
09:25PM 37.8775 -83.2647 244° Southwest 416 479 35,400 -660 Descending Indianapolis Center
09:26PM 37.8153 -83.3836 237° Southwest 405 466 34,700 -660 Descending Indianapolis Center
09:27PM 37.7525 -83.5025 236° Southwest 406 467 34,100 -360 Descending Indianapolis Center
09:28PM 37.6775 -83.6419 236° Southwest 411 473 34,000 -60 Descending Indianapolis Center
09:29PM 37.6131 -83.7631 236° Southwest 413 475 34,000  Level Indianapolis Center
09:30PM 37.5458 -83.8864 236° Southwest 424 488 34,000 -120 Level Indianapolis Center
09:31PM 37.4797 -84.0097 236° Southwest 428 493 33,800 -600 Descending Indianapolis Center
09:32PM 37.4144 -84.1319 236° Southwest 424 488 32,800 -1,260 Descending Indianapolis Center
09:33PM 37.3492 -84.2519 236° Southwest 418 481 31,300 -1,380 Descending Indianapolis Center
09:34PM 37.2689 -84.3967 235° Southwest 429 494 30,000 -660 Descending Indianapolis Center
09:35PM 37.2025 -84.5197 236° Southwest 428 493 30,000  Level Indianapolis Center
09:36PM 37.1347 -84.6431 235° Southwest 431 496 30,000  Level Indianapolis Center
09:37PM 37.0678 -84.7664 236° Southwest 431 496 30,000  Level Indianapolis Center
09:39PM 36.9964 -84.8964 236° Southwest 430 495 30,000 -540 Level Indianapolis Center
09:40PM 36.9294 -85.0178 235° Southwest 427 491 29,000 -1,680 Descending Indianapolis Center
09:41PM 36.8678 -85.1494 240° Southwest 437 503 26,600 -2,340 Descending Indianapolis Center
09:42PM 36.8075 -85.2781 240° Southwest 433 498 24,300 -2,100 Descending Indianapolis Center
09:43PM 36.7481 -85.4050 240° Southwest 427 491 22,300 -1,260 Descending Indianapolis Center
09:44PM 36.6778 -85.5539 240° Southwest 419 482 21,800 -1,320 Descending Indianapolis Center
09:45PM 36.6206 -85.6756 240° Southwest 410 472 19,700 -2,100 Descending Indianapolis Center
09:46PM 36.5633 -85.7950 239° Southwest 404 465 17,500 -2,520 Descending Indianapolis Center
09:47PM 36.5089 -85.9122 240° Southwest 396 456 14,600 -2,760 Descending Indianapolis Center
09:48PM 36.4672 -86.0286 246° West 364 419 11,900 -1,860 Descending Indianapolis Center
09:49PM 36.4392 -86.1433 253° West 346 398 10,900 -1,020 Descending Indianapolis Center
09:50PM 36.4094 -86.2425 250° West 303 349 9,900 -1,380 Descending Indianapolis Center
09:51PM 36.3694 -86.3244 239° Southwest 277 319 8,100 -1,800 Descending Indianapolis Center
09:52PM 36.3289 -86.4056 238° Southwest 275 316 6,300 -1,740 Descending Indianapolis Center
09:53PM 36.2897 -86.4825 238° Southwest 264 304 4,600 -1,560 Descending Indianapolis Center
09:54PM 36.2369 -86.5925 239° Southwest 262 302 2,600 -1,500 Descending Memphis Center